Time;durP1;ratioP1;P1;durP2;ratioP2;P2;SDS_P1;SDS_P2;PMS_P1;PMS_P2;Temp;Humidity;BMP_temperature;BMP_pressure;BME280_temperature;BME280_humidity;BME280_pressure;Samples;Min_cycle;Max_cycle;Signal;HPM_P1;HPM_P2
2021/03/23 00:00:44;;;;;;;19.17;12.60;;;7.80;1.00;;;;;;5097248;28;20167;-86
2021/03/23 00:03:14;;;;;;;18.53;13.00;;;7.80;1.00;;;;;;5096972;28;20169;-86
2021/03/23 00:05:41;;;;;;;20.30;13.17;;;7.80;1.00;;;;;;5096545;28;20168;-84
2021/03/23 00:08:19;;;;;;;18.30;13.10;;;7.90;1.00;;;;;;5096645;28;20199;-87
2021/03/23 00:10:45;;;;;;;20.97;13.10;;;8.10;1.00;;;;;;5096888;28;20175;-85
2021/03/23 00:13:10;;;;;;;19.33;13.00;;;8.00;1.00;;;;;;5097011;28;20179;-86
2021/03/23 00:15:36;;;;;;;22.37;13.70;;;8.00;1.00;;;;;;5096850;28;20654;-86
2021/03/23 00:18:05;;;;;;;17.13;12.10;;;8.00;1.00;;;;;;5097073;28;20232;-81
2021/03/23 00:20:31;;;;;;;17.10;12.20;;;7.90;1.00;;;;;;5096508;28;20238;-85
2021/03/23 00:22:56;;;;;;;19.87;13.03;;;7.90;1.00;;;;;;5096815;28;20168;-83
2021/03/23 00:25:22;;;;;;;20.60;13.33;;;7.90;1.00;;;;;;5096526;28;20647;-86
2021/03/23 00:27:48;;;;;;;17.93;12.67;;;8.00;1.00;;;;;;5096557;28;20211;-84
2021/03/23 00:30:14;;;;;;;18.53;12.50;;;8.00;1.00;;;;;;5096798;28;20168;-86
2021/03/23 00:32:39;;;;;;;18.83;12.93;;;8.10;1.00;;;;;;5096400;28;20182;-85
2021/03/23 00:35:06;;;;;;;18.27;12.70;;;8.00;1.00;;;;;;5096247;28;20164;-86
2021/03/23 00:37:32;;;;;;;20.67;12.60;;;8.00;1.00;;;;;;5077754;28;20907;-86
2021/03/23 00:39:59;;;;;;;21.20;13.40;;;8.00;1.00;;;;;;5096429;28;20170;-87
2021/03/23 00:42:25;;;;;;;22.90;13.40;;;8.20;1.00;;;;;;5095954;28;20175;-85
2021/03/23 00:44:51;;;;;;;20.60;13.50;;;8.20;1.00;;;;;;5095878;28;20187;-85
2021/03/23 00:47:18;;;;;;;20.80;12.63;;;8.20;1.00;;;;;;5096085;28;20674;-85
2021/03/23 00:49:43;;;;;;;22.77;12.33;;;8.30;1.00;;;;;;5095349;28;20580;-85
2021/03/23 00:52:09;;;;;;;23.17;13.30;;;8.00;1.00;;;;;;5096163;28;20171;-84
2021/03/23 00:54:35;;;;;;;19.90;12.57;;;8.00;1.00;;;;;;5095809;28;20168;-86
2021/03/23 00:57:00;;;;;;;20.47;12.03;;;7.90;1.00;;;;;;5095778;28;20197;-87
2021/03/23 00:59:26;;;;;;;21.63;13.03;;;8.00;1.00;;;;;;5095830;28;20223;-86
2021/03/23 01:01:52;;;;;;;20.63;13.90;;;8.00;1.00;;;;;;5095874;28;20168;-85
2021/03/23 01:04:18;;;;;;;22.23;13.63;;;8.00;1.00;;;;;;5094694;28;20225;-84
2021/03/23 01:06:43;;;;;;;21.67;13.40;;;7.90;1.00;;;;;;5096498;28;20223;-87
2021/03/23 01:09:10;;;;;;;24.03;14.03;;;7.90;1.00;;;;;;5095510;28;20187;-85
2021/03/23 01:11:36;;;;;;;22.93;13.27;;;7.80;1.00;;;;;;5095640;28;20654;-86
2021/03/23 01:14:02;;;;;;;28.97;15.10;;;7.80;1.00;;;;;;5097792;28;20259;-86
2021/03/23 01:16:27;;;;;;;24.20;13.90;;;8.10;1.00;;;;;;5095561;28;20168;-85
2021/03/23 01:18:53;;;;;;;25.90;14.10;;;7.90;1.00;;;;;;5077253;28;20539;-82
2021/03/23 01:21:19;;;;;;;24.03;13.40;;;7.80;1.00;;;;;;5095672;28;20159;-83
2021/03/23 01:23:44;;;;;;;25.20;13.43;;;7.80;1.00;;;;;;5095265;28;20167;-85
2021/03/23 01:26:10;;;;;;;23.87;13.87;;;7.70;1.00;;;;;;5095175;28;20187;-85
2021/03/23 01:28:36;;;;;;;23.17;12.87;;;7.70;1.00;;;;;;5095051;28;20578;-85
2021/03/23 01:31:01;;;;;;;23.07;13.40;;;7.70;1.00;;;;;;5095424;28;20164;-86
2021/03/23 01:33:27;;;;;;;21.00;14.20;;;7.80;1.00;;;;;;5095210;28;20176;-85
2021/03/23 01:35:53;;;;;;;22.70;13.43;;;7.80;1.00;;;;;;5095452;28;20160;-85
2021/03/23 01:38:19;;;;;;;22.47;13.40;;;7.80;1.00;;;;;;5095353;28;20182;-81
2021/03/23 01:40:44;;;;;;;22.03;12.73;;;7.80;1.00;;;;;;5094811;28;20168;-82
2021/03/23 01:43:23;;;;;;;22.40;12.90;;;7.90;1.00;;;;;;5095186;28;20210;-87
2021/03/23 01:45:50;;;;;;;25.77;12.73;;;7.90;1.00;;;;;;5094860;28;20553;-85
2021/03/23 01:48:23;;;;;;;21.07;12.93;;;7.90;1.00;;;;;;5094939;28;20207;-87
2021/03/23 01:50:53;;;;;;;19.60;13.30;;;8.00;1.00;;;;;;5094943;28;20207;-84
2021/03/23 01:53:40;;;;;;;18.07;12.43;;;8.00;1.00;;;;;;5094944;28;20171;-78
2021/03/23 01:56:07;;;;;;;20.03;11.47;;;8.00;1.00;;;;;;5094715;28;20163;-85
2021/03/23 01:58:36;;;;;;;20.87;12.87;;;7.90;1.00;;;;;;5094889;28;20166;-86
2021/03/23 02:01:04;;;;;;;22.17;12.90;;;7.90;1.00;;;;;;5094440;28;20172;-85
2021/03/23 02:03:30;;;;;;;21.23;12.13;;;7.80;1.00;;;;;;5094705;28;20164;-85
2021/03/23 02:05:58;;;;;;;22.80;12.63;;;7.80;1.00;;;;;;5094391;28;20599;-85
2021/03/23 02:08:24;;;;;;;24.00;12.30;;;7.80;1.00;;;;;;5094592;28;20207;-85
2021/03/23 02:10:55;;;;;;;24.43;12.57;;;7.70;1.00;;;;;;5076578;28;20176;-82
2021/03/23 02:13:22;;;;;;;20.67;12.73;;;7.70;1.00;;;;;;5076120;28;20635;-86
2021/03/23 02:15:48;;;;;;;25.03;13.57;;;7.60;1.00;;;;;;5093856;28;20168;-85
2021/03/23 02:18:18;;;;;;;22.07;12.37;;;7.60;1.00;;;;;;5094190;28;20171;-84
2021/03/23 02:21:10;;;;;;;18.47;11.97;;;7.60;1.00;;;;;;5094215;28;20174;-86
2021/03/23 02:23:48;;;;;;;21.57;12.50;;;7.60;1.00;;;;;;5094353;28;20198;-86
2021/03/23 02:26:19;;;;;;;21.83;12.47;;;7.70;1.00;;;;;;5094203;28;20175;-79
2021/03/23 02:28:55;;;;;;;20.43;12.63;;;7.90;1.00;;;;;;5093892;28;20195;-84
2021/03/23 02:31:34;;;;;;;23.13;12.57;;;7.70;1.00;;;;;;5093824;28;20155;-86
2021/03/23 02:34:01;;;;;;;20.23;12.40;;;7.70;1.00;;;;;;5076174;28;20178;-85
2021/03/23 02:36:28;;;;;;;22.30;12.80;;;7.70;1.00;;;;;;5093743;28;20175;-85
2021/03/23 02:38:54;;;;;;;23.63;13.27;;;7.60;1.00;;;;;;5094070;28;20187;-85
2021/03/23 02:41:20;;;;;;;23.07;13.10;;;7.60;1.00;;;;;;5094296;28;20172;-84
2021/03/23 02:43:46;;;;;;;22.57;12.47;;;7.60;1.00;;;;;;5094273;28;20171;-85
2021/03/23 02:46:12;;;;;;;22.73;12.83;;;7.60;1.00;;;;;;5093612;28;20179;-83
2021/03/23 02:48:38;;;;;;;18.97;11.33;;;7.60;1.00;;;;;;5099876;28;20206;-85
2021/03/23 02:51:04;;;;;;;22.40;12.73;;;7.70;1.00;;;;;;5094509;28;20164;-84
2021/03/23 02:53:30;;;;;;;25.77;13.20;;;7.60;1.00;;;;;;5093880;28;20171;-85
2021/03/23 02:55:56;;;;;;;20.30;12.60;;;7.50;1.00;;;;;;5093566;28;20163;-85
2021/03/23 02:58:21;;;;;;;21.20;12.93;;;7.50;1.00;;;;;;5094104;28;20229;-86
2021/03/23 03:00:47;;;;;;;20.93;13.07;;;7.50;1.00;;;;;;5093504;28;20183;-84
2021/03/23 03:03:13;;;;;;;19.97;12.00;;;7.50;1.00;;;;;;5093739;28;20191;-83
2021/03/23 03:05:38;;;;;;;20.83;13.67;;;7.60;1.00;;;;;;5093588;28;20167;-83
2021/03/23 03:08:05;;;;;;;22.40;12.83;;;7.50;1.00;;;;;;5093609;28;20207;-84
2021/03/23 03:10:31;;;;;;;19.60;12.97;;;7.50;1.00;;;;;;5093584;28;20168;-86
2021/03/23 03:12:58;;;;;;;23.97;13.23;;;7.50;1.00;;;;;;5093580;28;20174;-86
2021/03/23 03:15:24;;;;;;;21.67;12.10;;;7.50;1.00;;;;;;5093299;28;20164;-84
2021/03/23 03:17:50;;;;;;;22.10;13.10;;;7.50;1.00;;;;;;5093667;28;20677;-85
2021/03/23 03:20:16;;;;;;;20.67;12.97;;;7.50;1.00;;;;;;5090117;28;20180;-85
2021/03/23 03:22:42;;;;;;;23.30;13.77;;;7.50;1.00;;;;;;5084491;28;20183;-83
2021/03/23 03:25:10;;;;;;;21.23;12.93;;;7.50;1.00;;;;;;5093408;28;20184;-86
2021/03/23 03:27:35;;;;;;;24.53;14.10;;;7.50;1.00;;;;;;5069627;28;20218;-83
2021/03/23 03:30:03;;;;;;;21.23;12.87;;;7.50;1.00;;;;;;5079341;28;20181;-86
2021/03/23 03:32:29;;;;;;;23.37;14.37;;;7.50;2.30;;;;;;5077448;28;20176;-84
2021/03/23 03:34:55;;;;;;;25.53;13.60;;;7.60;1.80;;;;;;5077047;28;20176;-85
2021/03/23 03:37:20;;;;;;;25.67;14.83;;;7.60;1.00;;;;;;5077412;28;20168;-86
2021/03/23 03:39:46;;;;;;;23.43;14.37;;;7.60;1.00;;;;;;5077489;28;20176;-86
2021/03/23 03:42:12;;;;;;;24.07;14.07;;;7.60;1.00;;;;;;5077108;28;20179;-84
2021/03/23 03:44:37;;;;;;;22.67;13.87;;;7.60;1.00;;;;;;5076615;28;20566;-84
2021/03/23 03:47:03;;;;;;;24.93;14.50;;;7.60;2.60;;;;;;5076784;28;20196;-85
2021/03/23 03:49:29;;;;;;;25.13;15.13;;;7.70;1.20;;;;;;5076981;28;20180;-82
2021/03/23 03:51:54;;;;;;;23.33;14.23;;;7.70;1.00;;;;;;5076812;28;20231;-85
2021/03/23 03:54:20;;;;;;;23.30;14.80;;;7.60;2.40;;;;;;5076945;28;20259;-85
2021/03/23 03:56:46;;;;;;;22.80;14.23;;;7.50;6.20;;;;;;5076562;28;20172;-82
2021/03/23 03:59:11;;;;;;;20.37;13.03;;;7.50;8.80;;;;;;5077019;28;20172;-84
2021/03/23 04:01:37;;;;;;;21.13;14.33;;;7.60;8.20;;;;;;5076982;28;20218;-78
2021/03/23 04:04:03;;;;;;;25.40;14.30;;;7.60;7.30;;;;;;5076902;28;20179;-83
2021/03/23 04:06:28;;;;;;;24.23;15.00;;;7.60;8.60;;;;;;5076426;28;20256;-82
2021/03/23 04:08:54;;;;;;;23.53;14.80;;;7.50;10.20;;;;;;5076636;28;20172;-84
2021/03/23 04:11:20;;;;;;;23.20;14.67;;;7.60;9.70;;;;;;5076600;28;20191;-85
2021/03/23 04:13:45;;;;;;;24.70;15.33;;;7.60;11.00;;;;;;5076746;28;20175;-85
2021/03/23 04:16:11;;;;;;;27.30;15.27;;;7.60;8.90;;;;;;5076579;28;20186;-86
2021/03/23 04:18:36;;;;;;;22.90;14.93;;;7.60;10.70;;;;;;5077006;28;20259;-85
2021/03/23 04:21:04;;;;;;;25.73;14.87;;;7.50;14.30;;;;;;5064809;28;20259;-83
2021/03/23 04:23:34;;;;;;;23.37;14.60;;;7.40;17.00;;;;;;5082238;28;20176;-81
2021/03/23 04:26:00;;;;;;;22.83;15.00;;;7.40;20.60;;;;;;5092002;28;20180;-83
2021/03/23 04:28:26;;;;;;;28.40;15.27;;;7.40;21.40;;;;;;5093685;28;20191;-85
2021/03/23 04:30:52;;;;;;;25.47;14.73;;;7.50;21.40;;;;;;5094727;28;20190;-85
2021/03/23 04:33:21;;;;;;;27.70;16.20;;;7.50;19.60;;;;;;5094164;28;20169;-84
2021/03/23 04:35:51;;;;;;;24.80;15.10;;;7.50;20.60;;;;;;5095371;28;20157;-86
2021/03/23 04:38:19;;;;;;;25.40;16.80;;;7.40;22.30;;;;;;5088488;28;20171;-86
2021/03/23 04:40:45;;;;;;;25.27;15.37;;;7.40;25.50;;;;;;5075318;28;20160;-84
2021/03/23 04:43:21;;;;;;;25.93;15.57;;;7.30;27.60;;;;;;5075974;28;20191;-86
2021/03/23 04:45:47;;;;;;;25.00;15.83;;;7.30;29.20;;;;;;5075889;28;20213;-85
2021/03/23 04:48:13;;;;;;;25.03;16.03;;;7.30;30.00;;;;;;5075860;28;20294;-86
2021/03/23 04:50:39;;;;;;;27.10;16.77;;;7.40;27.70;;;;;;5075969;28;20724;-85
2021/03/23 04:53:17;;;;;;;23.63;15.60;;;7.40;29.60;;;;;;5057874;28;20168;-86
2021/03/23 04:55:43;;;;;;;25.23;15.13;;;7.40;31.10;;;;;;5075531;28;20357;-86
2021/03/23 04:58:08;;;;;;;27.87;15.27;;;7.50;29.70;;;;;;5058042;28;20278;-83
2021/03/23 05:00:34;;;;;;;26.87;15.23;;;7.60;25.50;;;;;;5075612;28;20250;-86
2021/03/23 05:03:00;;;;;;;27.03;15.13;;;7.50;27.60;;;;;;5075643;28;20306;-85
2021/03/23 05:05:25;;;;;;;24.93;15.57;;;7.50;28.60;;;;;;5075846;28;20176;-86
2021/03/23 05:07:51;;;;;;;25.70;15.17;;;7.40;29.40;;;;;;5075542;28;20200;-85
2021/03/23 05:10:16;;;;;;;29.07;16.07;;;7.40;32.80;;;;;;5075349;28;20196;-85
2021/03/23 05:12:42;;;;;;;25.27;14.97;;;7.50;31.20;;;;;;5075676;28;20214;-83
2021/03/23 05:15:09;;;;;;;24.53;15.40;;;7.50;30.50;;;;;;5075361;28;20172;-82
2021/03/23 05:17:35;;;;;;;29.57;15.67;;;7.40;32.80;;;;;;5075666;28;20172;-84
2021/03/23 05:20:01;;;;;;;27.37;16.30;;;7.40;35.40;;;;;;5057324;28;20176;-85
2021/03/23 05:22:27;;;;;;;23.90;15.57;;;7.50;33.90;;;;;;5075073;28;20168;-85
2021/03/23 05:24:52;;;;;;;25.43;16.60;;;7.50;32.80;;;;;;5075015;28;20164;-84
2021/03/23 05:27:18;;;;;;;27.33;15.77;;;7.50;29.50;;;;;;5075140;28;20188;-83
2021/03/23 05:29:43;;;;;;;31.87;16.67;;;7.40;33.20;;;;;;5075326;28;20263;-84
2021/03/23 05:32:10;;;;;;;29.70;16.53;;;7.40;34.40;;;;;;5075099;28;20199;-78
2021/03/23 05:34:37;;;;;;;26.20;16.33;;;7.30;37.20;;;;;;5074682;28;20229;-85
2021/03/23 05:37:03;;;;;;;27.07;16.10;;;7.40;37.90;;;;;;5074920;28;20176;-84
2021/03/23 05:39:28;;;;;;;28.73;18.07;;;7.30;37.00;;;;;;5074646;28;20172;-86
2021/03/23 05:42:06;;;;;;;29.63;18.37;;;7.30;41.10;;;;;;5075027;28;20172;-83
2021/03/23 05:44:56;;;;;;;23.73;15.73;;;7.10;42.30;;;;;;5074356;28;20206;-85
2021/03/23 05:47:29;;;;;;;28.57;16.93;;;7.10;44.60;;;;;;5056713;28;20231;-85
2021/03/23 05:50:05;;;;;;;27.97;17.27;;;7.10;45.60;;;;;;5074341;28;20168;-82
2021/03/23 05:52:37;;;;;;;28.97;17.53;;;7.20;45.70;;;;;;5074849;28;20225;-82
2021/03/23 05:55:42;;;;;;;28.30;17.00;;;7.20;44.10;;;;;;5075057;28;20167;-80
2021/03/23 05:58:25;;;;;;;27.20;16.70;;;7.20;43.10;;;;;;5074302;28;20180;-85
2021/03/23 06:01:08;;;;;;;31.47;18.43;;;7.20;43.00;;;;;;5073991;28;20329;-84
2021/03/23 06:03:40;;;;;;;34.03;17.80;;;7.30;42.60;;;;;;5074173;28;20531;-84
2021/03/23 06:06:36;;;;;;;35.80;18.10;;;7.20;41.30;;;;;;5074013;28;20522;-85
2021/03/23 06:09:02;;;;;;;32.87;16.83;;;7.20;45.20;;;;;;5073963;28;20218;-84
2021/03/23 06:11:43;;;;;;;29.93;18.27;;;7.30;39.90;;;;;;5073823;28;20207;-85
2021/03/23 06:14:40;;;;;;;35.30;18.37;;;7.30;39.60;;;;;;5056222;28;20180;-85
2021/03/23 06:17:24;;;;;;;33.03;18.33;;;7.30;42.30;;;;;;5074111;28;20525;-87
2021/03/23 06:20:18;;;;;;;31.03;18.50;;;7.20;43.40;;;;;;5073888;28;20172;-82
2021/03/23 06:22:59;;;;;;;30.30;17.43;;;7.30;43.50;;;;;;5073493;28;20617;-82
2021/03/23 06:25:36;;;;;;;26.60;17.50;;;7.40;41.70;;;;;;5073470;28;20191;-85
2021/03/23 06:28:14;;;;;;;29.17;16.93;;;7.40;39.60;;;;;;5073390;28;20203;-80
2021/03/23 06:30:57;;;;;;;31.87;17.43;;;7.40;39.40;;;;;;5073701;28;20164;-85
2021/03/23 06:33:26;;;;;;;29.27;17.60;;;7.40;41.40;;;;;;5073332;28;20679;-87
2021/03/23 06:36:02;;;;;;;25.20;17.40;;;7.40;38.20;;;;;;5073506;28;20223;-85
2021/03/23 06:38:37;;;;;;;31.93;18.30;;;7.40;39.30;;;;;;5073121;28;20201;-82
2021/03/23 06:41:14;;;;;;;32.70;17.67;;;7.40;38.60;;;;;;5073582;28;20310;-83
2021/03/23 06:43:52;;;;;;;28.03;17.90;;;7.50;37.90;;;;;;5056308;28;20187;-83
2021/03/23 06:46:47;;;;;;;34.07;17.90;;;7.50;37.10;;;;;;5055747;28;20195;-87
2021/03/23 06:49:12;;;;;;;39.27;18.77;;;7.70;29.40;;;;;;5072014;28;20192;-88
2021/03/23 06:52:00;;;;;;;38.63;19.20;;;7.90;23.90;;;;;;5075388;28;20168;-84
2021/03/23 06:54:40;;;;;;;37.53;19.27;;;7.90;23.50;;;;;;5072745;28;20160;-86
2021/03/23 06:57:17;;;;;;;31.57;17.27;;;7.90;24.10;;;;;;5056563;28;20262;-84
2021/03/23 06:59:57;;;;;;;28.90;18.17;;;7.90;23.40;;;;;;5056008;28;20166;-83
2021/03/23 07:02:35;;;;;;;36.50;19.67;;;7.80;22.70;;;;;;5073183;28;20295;-91
2021/03/23 07:05:19;;;;;;;36.03;18.00;;;8.00;23.50;;;;;;5073116;28;20163;-82
2021/03/23 07:07:55;;;;;;;28.80;17.80;;;8.00;16.80;;;;;;5055731;28;20242;-82
2021/03/23 07:10:25;;;;;;;30.40;19.00;;;8.00;17.50;;;;;;5071991;28;20279;-82
2021/03/23 07:12:53;;;;;;;28.60;18.77;;;8.00;14.90;;;;;;5072546;28;20183;-78
2021/03/23 07:15:23;;;;;;;32.13;18.87;;;8.10;9.00;;;;;;5072300;28;20222;-81
2021/03/23 07:17:55;;;;;;;34.67;19.63;;;8.20;5.70;;;;;;5072353;28;20245;-87
2021/03/23 07:20:33;;;;;;;32.90;20.07;;;8.20;5.70;;;;;;5075633;28;20254;-88
2021/03/23 07:23:19;;;;;;;31.90;18.47;;;8.10;3.50;;;;;;5054097;28;20172;-78
2021/03/23 07:25:45;;;;;;;32.13;17.40;;;8.20;6.60;;;;;;5074561;28;20195;-86
2021/03/23 07:28:35;;;;;;;35.83;18.87;;;8.20;2.40;;;;;;5061260;28;20565;-86
2021/03/23 07:31:24;;;;;;;31.20;19.07;;;8.30;1.00;;;;;;5084011;28;20169;-87
2021/03/23 07:33:56;;;;;;;28.67;16.80;;;8.30;1.00;;;;;;5092188;28;20175;-82
2021/03/23 07:36:28;;;;;;;34.57;18.20;;;8.40;1.00;;;;;;5085299;28;20529;-88
2021/03/23 07:39:15;;;;;;;28.73;17.87;;;8.50;1.00;;;;;;5093370;28;20163;-83
2021/03/23 07:41:50;;;;;;;31.90;17.83;;;8.50;1.00;;;;;;5089320;28;20172;-88
2021/03/23 07:44:44;;;;;;;32.77;17.33;;;8.50;1.00;;;;;;5071604;28;20172;-88
2021/03/23 07:47:21;;;;;;;26.93;17.27;;;8.50;1.00;;;;;;5071357;28;20234;-83
2021/03/23 07:50:19;;;;;;;32.50;18.97;;;8.60;1.00;;;;;;5071016;28;20180;-81
2021/03/23 07:52:47;;;;;;;33.27;17.73;;;8.70;1.00;;;;;;5071934;28;20621;-86
2021/03/23 07:55:20;;;;;;;28.23;16.80;;;8.80;1.00;;;;;;5054047;28;20237;-87
2021/03/23 07:57:52;;;;;;;30.77;18.30;;;8.80;1.00;;;;;;5071937;28;20153;-87
2021/03/23 08:00:25;;;;;;;31.97;17.00;;;8.80;1.00;;;;;;5072141;28;20222;-89
2021/03/23 08:03:05;;;;;;;32.00;18.03;;;8.90;1.00;;;;;;5061640;28;20657;-90
2021/03/23 08:05:48;;;;;;;29.23;17.53;;;9.00;1.00;;;;;;5055002;28;20203;-85
2021/03/23 08:08:29;;;;;;;29.70;17.60;;;9.20;1.00;;;;;;5071394;28;20204;-86
2021/03/23 08:11:18;;;;;;;31.90;18.30;;;9.30;1.00;;;;;;5070766;28;20620;-84
2021/03/23 08:14:05;;;;;;;27.20;17.57;;;9.50;1.00;;;;;;5091847;28;20237;-84
2021/03/23 08:17:04;;;;;;;31.60;18.43;;;9.60;1.00;;;;;;5095435;28;20195;-84
2021/03/23 08:19:35;;;;;;;32.70;17.47;;;9.60;1.00;;;;;;5076224;28;20167;-78
2021/03/23 08:22:18;;;;;;;28.13;17.00;;;9.50;1.00;;;;;;5094175;28;20160;-82
2021/03/23 08:25:19;;;;;;;28.33;18.00;;;9.50;1.00;;;;;;5094374;28;20179;-82
2021/03/23 08:28:10;;;;;;;27.30;18.30;;;9.70;1.00;;;;;;5062391;28;20671;-81
2021/03/23 08:31:00;;;;;;;27.87;17.53;;;9.80;1.00;;;;;;5076929;28;20643;-87
2021/03/23 08:33:44;;;;;;;27.93;19.10;;;9.80;1.00;;;;;;5094621;28;20168;-85
2021/03/23 08:36:41;;;;;;;27.83;16.37;;;9.70;1.00;;;;;;5062870;28;20171;-84
2021/03/23 08:39:40;;;;;;;25.30;16.37;;;9.80;1.00;;;;;;5074428;28;20173;-83
2021/03/23 08:42:16;;;;;;;28.00;16.43;;;9.80;1.00;;;;;;5074011;28;20258;-78
2021/03/23 08:45:05;;;;;;;28.23;18.23;;;9.90;1.00;;;;;;5073644;28;20295;-78
2021/03/23 08:47:39;;;;;;;28.03;17.93;;;10.00;1.00;;;;;;5043923;28;20308;-82
2021/03/23 08:50:19;;;;;;;27.80;16.60;;;10.10;1.00;;;;;;5056033;28;20176;-80
2021/03/23 08:52:47;;;;;;;24.90;17.87;;;10.10;1.00;;;;;;5073631;28;20186;-81
2021/03/23 08:55:31;;;;;;;26.50;17.40;;;10.20;1.00;;;;;;5073934;28;20172;-84
2021/03/23 08:58:10;;;;;;;29.77;18.03;;;10.20;1.00;;;;;;5073714;28;20215;-83
2021/03/23 09:00:36;;;;;;;25.67;14.20;;;10.40;1.00;;;;;;5073700;28;20175;-81
2021/03/23 09:03:23;;;;;;;22.17;15.03;;;10.40;1.00;;;;;;5055218;28;20554;-81
2021/03/23 09:05:52;;;;;;;26.90;14.17;;;10.10;1.00;;;;;;5057162;28;20192;-80
2021/03/23 09:08:32;;;;;;;23.30;14.57;;;10.00;1.00;;;;;;5055537;28;20216;-81
2021/03/23 09:10:58;;;;;;;24.13;14.03;;;10.20;1.00;;;;;;5073552;28;20222;-82
2021/03/23 09:13:44;;;;;;;21.27;14.27;;;10.10;1.00;;;;;;5055025;28;20180;-82
2021/03/23 09:16:13;;;;;;;21.43;13.70;;;10.00;1.00;;;;;;5022083;28;20208;-81
2021/03/23 09:19:04;;;;;;;20.27;13.87;;;10.20;1.00;;;;;;5073013;28;20187;-82
2021/03/23 09:21:52;;;;;;;23.00;13.90;;;10.30;1.00;;;;;;5056241;28;20183;-82
2021/03/23 09:24:27;;;;;;;22.30;13.43;;;10.40;99.90;;;;;;5054952;28;20165;-83
2021/03/23 09:26:54;;;;;;;18.90;13.17;;;10.50;1.00;;;;;;5054396;28;20555;-80
2021/03/23 09:29:35;;;;;;;20.47;12.90;;;10.50;99.90;;;;;;5072988;28;20259;-78
2021/03/23 09:32:03;;;;;;;25.23;14.03;;;10.40;99.90;;;;;;5054934;28;20491;-81
2021/03/23 09:35:06;;;;;;;19.27;13.10;;;10.20;99.90;;;;;;5072814;28;20172;-81
2021/03/23 09:37:39;;;;;;;22.97;14.23;;;10.30;99.90;;;;;;5072965;28;20168;-83
2021/03/23 09:40:17;;;;;;;24.67;13.63;;;10.50;99.90;;;;;;5055002;28;20587;-80
2021/03/23 09:42:51;;;;;;;21.37;12.17;;;10.50;99.90;;;;;;5083841;28;20254;-82
2021/03/23 09:45:28;;;;;;;21.87;12.17;;;10.70;99.90;;;;;;5092813;28;20179;-77
2021/03/23 09:47:59;;;;;;;25.87;12.93;;;10.90;12.60;;;;;;5093540;28;20199;-82
2021/03/23 09:50:37;;;;;;;20.93;13.67;;;11.00;1.00;;;;;;5094801;28;20536;-85
2021/03/23 09:53:12;;;;;;;21.37;11.73;;;11.10;1.00;;;;;;5096961;28;20581;-85
2021/03/23 09:55:40;;;;;;;24.50;12.63;;;10.90;1.00;;;;;;5092477;28;20199;-85
2021/03/23 09:58:12;;;;;;;19.57;12.50;;;10.80;1.00;;;;;;5093050;28;20195;-80
2021/03/23 10:00:37;;;;;;;21.10;12.67;;;10.80;1.00;;;;;;5092186;28;20346;-80
2021/03/23 10:03:18;;;;;;;20.00;12.67;;;10.90;1.00;;;;;;5092772;28;20640;-79
2021/03/23 10:05:58;;;;;;;19.50;12.47;;;11.20;1.00;;;;;;5074146;28;20213;-83
2021/03/23 10:08:24;;;;;;;20.53;12.63;;;11.30;52.60;;;;;;5092760;28;20272;-84
2021/03/23 10:10:49;;;;;;;16.33;10.67;;;11.50;99.90;;;;;;5074307;28;20175;-86
2021/03/23 10:13:29;;;;;;;16.60;10.67;;;11.40;15.80;;;;;;5058676;28;20180;-84
2021/03/23 10:15:56;;;;;;;22.33;11.80;;;11.50;75.20;;;;;;5072176;28;20171;-79
2021/03/23 10:18:26;;;;;;;21.67;12.13;;;11.60;1.00;;;;;;5072776;28;20168;-84
2021/03/23 10:21:00;;;;;;;18.47;11.20;;;11.60;1.00;;;;;;5071823;28;20160;-85
2021/03/23 10:23:27;;;;;;;20.03;11.60;;;11.50;1.00;;;;;;5053426;28;20683;-86
2021/03/23 10:25:54;;;;;;;20.13;10.90;;;11.60;1.00;;;;;;5071865;28;20176;-84
2021/03/23 10:28:25;;;;;;;20.03;11.03;;;11.70;99.90;;;;;;5072481;28;20204;-85
2021/03/23 10:31:02;;;;;;;18.93;10.77;;;11.70;99.90;;;;;;5072460;28;20160;-86
2021/03/23 10:33:31;;;;;;;17.73;10.60;;;11.60;1.00;;;;;;5072480;28;20176;-82
2021/03/23 10:36:00;;;;;;;18.20;10.73;;;11.50;99.90;;;;;;5074597;28;20168;-85
2021/03/23 10:38:28;;;;;;;15.47;10.47;;;11.50;7.50;;;;;;5092660;28;20194;-86
2021/03/23 10:41:17;;;;;;;19.23;11.50;;;11.50;1.00;;;;;;5092645;28;20167;-82
2021/03/23 10:43:43;;;;;;;15.20;10.43;;;11.40;99.90;;;;;;5072884;28;20314;-86
2021/03/23 10:46:42;;;;;;;15.60;11.50;;;11.40;99.90;;;;;;5072264;28;20188;-86
2021/03/23 10:49:36;;;;;;;18.70;11.20;;;11.50;80.20;;;;;;5072541;28;20613;-87
2021/03/23 10:52:22;;;;;;;14.50;10.07;;;11.50;99.90;;;;;;5052009;28;20208;-84
2021/03/23 10:54:48;;;;;;;14.07;9.80;;;11.30;1.00;;;;;;5071487;28;20184;-86
2021/03/23 10:57:32;;;;;;;16.63;11.33;;;11.30;99.90;;;;;;5054382;28;20699;-86
2021/03/23 11:00:30;;;;;;;16.33;11.37;;;11.40;99.90;;;;;;5053890;28;20175;-85
2021/03/23 11:03:11;;;;;;;18.30;10.60;;;11.30;99.90;;;;;;5071479;28;20237;-81
2021/03/23 11:05:46;;;;;;;18.53;12.17;;;11.50;99.90;;;;;;5071452;28;20245;-83
2021/03/23 11:08:14;;;;;;;22.77;10.87;;;11.80;1.00;;;;;;5071483;28;20206;-84
2021/03/23 11:10:40;;;;;;;23.50;13.53;;;11.90;99.90;;;;;;5071509;28;20670;-87
2021/03/23 11:13:06;;;;;;;18.93;11.80;;;12.10;99.90;;;;;;5086183;28;20207;-85
2021/03/23 11:15:37;;;;;;;16.93;11.40;;;12.30;1.00;;;;;;5092691;28;20187;-89
2021/03/23 11:18:10;;;;;;;19.80;12.63;;;12.40;99.90;;;;;;5093905;28;20159;-89
2021/03/23 11:20:39;;;;;;;17.97;12.17;;;12.50;99.90;;;;;;5094115;28;20752;-91
2021/03/23 11:23:54;;;;;;;18.90;11.80;;;12.60;94.80;;;;;;5094057;28;20182;-86
2021/03/23 11:26:28;;;;;;;21.80;14.60;;;12.60;99.90;;;;;;5092516;28;20203;-88
2021/03/23 11:28:56;;;;;;;19.83;13.37;;;12.40;99.90;;;;;;5074539;28;20215;-91
2021/03/23 11:31:27;;;;;;;17.83;12.70;;;12.30;99.90;;;;;;5092988;28;20198;-83
2021/03/23 11:33:53;;;;;;;23.00;16.53;;;12.10;1.00;;;;;;5092581;28;20216;-92
2021/03/23 11:36:21;;;;;;;18.50;12.37;;;12.00;99.90;;;;;;5077681;28;20184;-82
2021/03/23 11:38:47;;;;;;;20.87;13.40;;;11.90;99.90;;;;;;5073925;28;20277;-89
2021/03/23 11:41:27;;;;;;;17.57;12.33;;;11.90;99.90;;;;;;5073284;28;20272;-81
2021/03/23 11:44:03;;;;;;;21.77;13.47;;;12.00;1.00;;;;;;5072762;28;20169;-87
2021/03/23 11:46:39;;;;;;;21.27;12.80;;;12.20;1.00;;;;;;5071034;28;20624;-84
2021/03/23 11:49:10;;;;;;;17.73;12.73;;;12.30;1.00;;;;;;5073937;28;20219;-78
2021/03/23 11:51:47;;;;;;;19.27;12.37;;;12.60;1.00;;;;;;5074815;28;20533;-81
2021/03/23 11:54:13;;;;;;;20.33;13.30;;;12.30;99.90;;;;;;5056642;28;20164;-84
2021/03/23 11:56:39;;;;;;;20.63;14.10;;;12.00;1.00;;;;;;5075691;28;20184;-87
2021/03/23 11:59:06;;;;;;;23.43;13.60;;;12.20;35.20;;;;;;5058768;28;20648;-84
2021/03/23 12:01:32;;;;;;;21.27;13.27;;;12.50;99.90;;;;;;5058366;28;20230;-86
2021/03/23 12:03:58;;;;;;;21.63;14.13;;;12.50;1.00;;;;;;5075765;28;20640;-88
2021/03/23 12:06:46;;;;;;;21.50;14.43;;;12.70;99.90;;;;;;5076143;28;20164;-85
2021/03/23 12:09:26;;;;;;;18.07;12.87;;;12.70;93.70;;;;;;5076124;28;20205;-86
2021/03/23 12:12:01;;;;;;;20.43;14.20;;;12.30;99.90;;;;;;5080058;28;20170;-88
2021/03/23 12:15:03;;;;;;;17.20;13.60;;;12.20;1.00;;;;;;5096782;28;20285;-87
2021/03/23 12:17:34;;;;;;;19.60;13.87;;;12.30;1.00;;;;;;5073886;28;20179;-85
2021/03/23 12:20:05;;;;;;;18.70;13.47;;;12.10;60.10;;;;;;5096212;28;20179;-86
2021/03/23 12:22:31;;;;;;;20.43;12.83;;;12.20;99.90;;;;;;5083202;28;20259;-90
2021/03/23 12:24:57;;;;;;;20.60;13.50;;;12.30;1.00;;;;;;5100239;28;20648;-86
2021/03/23 12:27:24;;;;;;;19.67;13.70;;;12.60;99.90;;;;;;5098872;28;20302;-88
2021/03/23 12:29:50;;;;;;;15.53;12.97;;;12.70;99.90;;;;;;5098924;28;20201;-83
2021/03/23 12:32:19;;;;;;;22.77;14.07;;;12.80;1.00;;;;;;5081291;28;20210;-91
2021/03/23 12:34:49;;;;;;;22.13;13.97;;;13.00;1.00;;;;;;5085290;28;20179;-90
2021/03/23 12:37:17;;;;;;;21.63;14.60;;;13.20;99.90;;;;;;5081354;28;20636;-88
2021/03/23 12:39:44;;;;;;;21.63;13.97;;;13.40;1.00;;;;;;5081221;28;20172;-88
2021/03/23 12:42:13;;;;;;;20.63;14.80;;;13.30;10.60;;;;;;5079650;28;20207;-84
2021/03/23 12:44:39;;;;;;;18.83;13.43;;;13.40;1.00;;;;;;5062270;28;20200;-86
2021/03/23 12:47:07;;;;;;;19.80;13.93;;;13.50;99.90;;;;;;5079660;28;20704;-84
2021/03/23 12:49:37;;;;;;;26.77;14.23;;;13.40;1.00;;;;;;5066844;28;20176;-88
2021/03/23 12:52:04;;;;;;;22.33;13.90;;;13.40;1.00;;;;;;5084927;28;20199;-89
2021/03/23 12:54:46;;;;;;;23.00;14.23;;;13.40;1.00;;;;;;5081834;28;20336;-92
2021/03/23 12:57:20;;;;;;;19.47;14.50;;;13.50;83.20;;;;;;5056533;28;20223;-88
2021/03/23 12:59:48;;;;;;;19.10;15.40;;;13.10;1.00;;;;;;5054791;28;20190;-84
2021/03/23 13:02:17;;;;;;;29.43;16.27;;;12.80;1.00;;;;;;5056131;28;20180;-84
2021/03/23 13:04:42;;;;;;;21.40;14.90;;;12.80;99.90;;;;;;5074629;28;20168;-86
2021/03/23 13:07:33;;;;;;;24.23;16.40;;;12.70;1.00;;;;;;5074447;28;20172;-84